createdAt,value
2018-03-07T00:01:00.532Z,154.77
2018-03-07T00:03:29.786Z,148.17
2018-03-07T00:05:58.475Z,150.93
2018-03-07T00:08:26.615Z,153.83
2018-03-07T00:10:54.726Z,162.47
2018-03-07T00:13:23.355Z,149.73
2018-03-07T00:15:52.227Z,150.77
2018-03-07T00:18:20.358Z,159.67
2018-03-07T00:20:48.466Z,165.47
2018-03-07T00:23:16.966Z,147.20
2018-03-07T00:25:45.842Z,170.17
2018-03-07T00:28:13.987Z,145.43
2018-03-07T00:30:42.094Z,151.20
2018-03-07T00:33:10.227Z,152.80
2018-03-07T00:35:38.350Z,156.97
2018-03-07T00:38:07.243Z,159.87
2018-03-07T00:40:36.119Z,160.13
2018-03-07T00:43:04.246Z,159.30
2018-03-07T00:45:32.365Z,173.67
2018-03-07T00:48:01.358Z,172.07
2018-03-07T00:50:29.460Z,152.43
2018-03-07T00:52:57.599Z,152.97
2018-03-07T00:55:26.626Z,162.97
2018-03-07T00:57:54.758Z,165.37
2018-03-07T01:00:22.874Z,171.53
2018-03-07T01:02:51.455Z,173.03
2018-03-07T01:05:20.337Z,170.97
2018-03-07T01:07:48.530Z,158.30
2018-03-07T01:10:16.642Z,154.50
2018-03-07T01:12:44.766Z,165.73
2018-03-07T01:15:12.875Z,158.30
2018-03-07T01:17:41.011Z,168.83
2018-03-07T01:20:11.621Z,172.37
2018-03-07T01:22:40.525Z,153.30
2018-03-07T01:25:09.853Z,164.10
2018-03-07T01:27:37.982Z,165.60
2018-03-07T01:30:06.087Z,161.43
2018-03-07T01:32:34.218Z,138.83
2018-03-07T01:35:02.341Z,155.23
2018-03-07T01:37:30.491Z,160.27
2018-03-07T01:39:59.374Z,152.47
2018-03-07T01:42:29.505Z,154.77
2018-03-07T01:44:58.377Z,157.07
2018-03-07T01:47:27.994Z,150.80
2018-03-07T01:49:56.870Z,153.27
2018-03-07T01:52:25.007Z,151.80
2018-03-07T01:54:53.115Z,155.13
2018-03-07T01:57:21.252Z,160.77
2018-03-07T01:59:49.355Z,154.93
2018-03-07T02:02:17.872Z,157.63
2018-03-07T02:04:46.002Z,151.83
2018-03-07T02:07:14.115Z,151.83
2018-03-07T02:09:42.645Z,143.67
2018-03-07T02:12:10.752Z,137.63
2018-03-07T02:14:38.882Z,152.87
2018-03-07T02:17:06.990Z,144.40
2018-03-07T02:19:35.126Z,139.33
2018-03-07T02:22:03.226Z,172.03
2018-03-07T02:24:31.361Z,158.73
2018-03-07T02:26:59.463Z,145.13
2018-03-07T02:29:27.676Z,142.73
2018-03-07T02:31:56.555Z,150.77
2018-03-07T02:34:24.683Z,146.00
2018-03-07T02:36:52.806Z,161.80
2018-03-07T02:39:21.706Z,153.37
2018-03-07T02:41:50.667Z,156.97
2018-03-07T02:44:18.807Z,163.00
2018-03-07T02:46:46.910Z,167.50
2018-03-07T02:49:15.831Z,173.53
2018-03-07T02:51:44.726Z,168.60
2018-03-07T02:54:13.624Z,167.10
2018-03-07T02:56:43.093Z,173.20
2018-03-07T02:59:11.223Z,166.47
2018-03-07T03:01:39.335Z,145.80
2018-03-07T03:04:07.477Z,158.23
2018-03-07T03:06:35.577Z,158.37
2018-03-07T03:09:03.767Z,150.90
2018-03-07T03:11:31.922Z,149.23
2018-03-07T03:14:00.021Z,157.47
2018-03-07T03:16:28.885Z,180.63
2018-03-07T03:18:57.035Z,152.90
2018-03-07T03:21:25.162Z,152.17
2018-03-07T03:23:54.055Z,155.47
2018-03-07T03:26:22.948Z,153.97
2018-03-07T03:28:52.568Z,150.17
2018-03-07T03:31:20.694Z,164.30
2018-03-07T03:33:49.302Z,149.70
2018-03-07T03:36:17.425Z,164.67
2018-03-07T03:38:45.577Z,139.23
2018-03-07T03:41:13.692Z,155.83
2018-03-07T03:43:41.836Z,160.10
2018-03-07T03:46:09.957Z,151.23
2018-03-07T03:48:38.104Z,155.27
2018-03-07T03:51:06.236Z,160.17
2018-03-07T03:53:35.133Z,161.10
2018-03-07T03:56:03.283Z,153.83
2018-03-07T03:58:32.205Z,163.90
2018-03-07T04:01:00.336Z,149.97
2018-03-07T04:03:30.886Z,166.23
2018-03-07T04:05:59.781Z,151.60
2018-03-07T04:08:28.689Z,161.93
2018-03-07T04:13:30.353Z,156.73
2018-03-07T04:15:58.464Z,167.20
2018-03-07T04:18:27.133Z,163.23
2018-03-07T04:20:55.261Z,157.00
2018-03-07T04:23:23.406Z,154.30
2018-03-07T04:25:52.161Z,148.27
2018-03-07T04:28:20.299Z,148.10
2018-03-07T04:30:49.220Z,154.33
2018-03-07T04:33:18.623Z,175.73
2018-03-07T04:35:48.918Z,165.67
2018-03-07T04:38:17.829Z,174.57
2018-03-07T04:40:45.949Z,171.10
2018-03-07T04:43:14.985Z,179.23
2018-03-07T04:45:43.869Z,159.70
2018-03-07T04:48:12.784Z,164.70
2018-03-07T04:50:40.949Z,166.93
2018-03-07T04:53:09.073Z,168.00
2018-03-07T04:55:37.220Z,150.80
2018-03-07T04:58:05.342Z,162.33
2018-03-07T05:00:33.487Z,166.47
2018-03-07T05:03:03.581Z,171.07
2018-03-07T05:05:31.726Z,159.40
2018-03-07T05:08:00.609Z,150.23
2018-03-07T05:10:32.062Z,165.50
2018-03-07T05:13:00.212Z,166.40
2018-03-07T05:15:28.761Z,165.37
2018-03-07T05:17:56.909Z,144.47
2018-03-07T05:20:25.062Z,173.93
2018-03-07T05:22:53.947Z,150.37
2018-03-07T05:25:22.089Z,159.43
2018-03-07T05:27:50.217Z,154.80
2018-03-07T05:30:18.363Z,167.73
2018-03-07T05:32:46.493Z,154.23
2018-03-07T05:35:15.055Z,153.50
2018-03-07T05:37:43.177Z,157.47
2018-03-07T05:40:11.329Z,160.73
2018-03-07T05:42:39.451Z,169.63
2018-03-07T05:45:08.061Z,171.40
2018-03-07T05:47:36.184Z,165.17
2018-03-07T05:50:07.101Z,151.20
2018-03-07T05:52:37.281Z,178.27
2018-03-07T05:55:06.184Z,176.80
2018-03-07T05:57:34.296Z,153.30
2018-03-07T06:00:02.487Z,165.30
2018-03-07T06:02:37.302Z,149.73
2018-03-07T06:05:05.438Z,175.37
2018-03-07T06:07:33.565Z,164.70
2018-03-07T06:10:01.741Z,183.47
2018-03-07T06:12:29.868Z,173.67
2018-03-07T06:14:58.020Z,160.93
2018-03-07T06:17:27.396Z,188.03
2018-03-07T06:19:55.536Z,184.23
2018-03-07T06:22:23.657Z,158.37
2018-03-07T06:24:52.552Z,171.47
2018-03-07T06:27:21.368Z,176.30
2018-03-07T06:29:49.512Z,183.23
2018-03-07T06:32:18.404Z,168.43
2018-03-07T06:34:47.098Z,186.40
2018-03-07T06:37:15.232Z,179.37
2018-03-07T06:39:43.369Z,187.57
2018-03-07T06:42:11.511Z,176.97
2018-03-07T06:44:40.420Z,178.47
2018-03-07T06:47:09.387Z,185.00
2018-03-07T06:49:38.303Z,173.27
2018-03-07T06:52:06.436Z,158.63
2018-03-07T06:54:34.573Z,184.60
2018-03-07T06:57:03.107Z,175.43
2018-03-07T06:59:32.028Z,177.30
2018-03-07T07:02:00.156Z,175.37
2018-03-07T07:04:28.297Z,164.73
2018-03-07T07:06:56.425Z,174.77
2018-03-07T07:09:25.123Z,177.77
2018-03-07T07:11:53.401Z,157.60
2018-03-07T07:14:21.548Z,166.47
2018-03-07T07:16:50.910Z,156.40
2018-03-07T07:19:19.048Z,165.17
2018-03-07T07:21:48.102Z,170.70
2018-03-07T07:24:16.252Z,165.77
2018-03-07T07:26:44.377Z,176.63
2018-03-07T07:29:13.933Z,179.53
2018-03-07T07:31:42.797Z,152.77
2018-03-07T07:34:12.272Z,168.27
2018-03-07T07:36:41.055Z,187.77
2018-03-07T07:39:09.172Z,172.63
2018-03-07T07:41:37.322Z,163.70
2018-03-07T07:44:06.213Z,179.00
2018-03-07T07:46:35.133Z,179.03
2018-03-07T07:49:03.286Z,177.43
2018-03-07T07:51:31.454Z,175.47
2018-03-07T07:54:00.342Z,185.60
2018-03-07T07:56:28.501Z,177.43
2018-03-07T07:58:57.391Z,172.40
2018-03-07T08:01:25.536Z,183.37
2018-03-07T08:03:53.657Z,168.67
2018-03-07T08:06:21.805Z,172.30
2018-03-07T08:08:50.706Z,162.23
2018-03-07T08:11:19.617Z,183.43
2018-03-07T08:13:47.761Z,174.63
2018-03-07T08:16:16.957Z,173.03
2018-03-07T08:18:45.077Z,192.97
2018-03-07T08:21:13.268Z,183.80
2018-03-07T08:23:41.397Z,178.07
2018-03-07T08:26:11.129Z,183.83
2018-03-07T08:28:39.256Z,160.50
2018-03-07T08:31:07.406Z,170.77
2018-03-07T08:33:35.541Z,188.37
2018-03-07T08:36:04.569Z,163.17
2018-03-07T08:38:32.689Z,168.53
2018-03-07T08:41:01.609Z,188.60
2018-03-07T08:43:29.770Z,179.33
2018-03-07T08:45:57.945Z,176.60
2018-03-07T08:48:27.227Z,176.33
2018-03-07T08:50:56.140Z,183.67
2018-03-07T08:53:24.257Z,178.37
2018-03-07T08:55:52.397Z,163.53
2018-03-07T08:58:20.508Z,169.23
2018-03-07T09:00:48.651Z,170.73
2018-03-07T09:03:16.774Z,157.13
2018-03-07T09:05:45.702Z,186.20
2018-03-07T09:08:13.828Z,174.67
2018-03-07T09:10:41.973Z,182.80
2018-03-07T09:13:10.865Z,174.67
2018-03-07T09:15:39.016Z,185.53
2018-03-07T09:18:07.133Z,171.63
2018-03-07T09:20:35.785Z,166.40
2018-03-07T09:23:03.914Z,173.17
2018-03-07T09:25:32.077Z,176.00
2018-03-07T09:28:00.457Z,176.30
2018-03-07T09:30:28.601Z,179.90
2018-03-07T09:32:56.721Z,182.50
2018-03-07T09:35:25.633Z,186.93
2018-03-07T09:37:53.757Z,168.23
2018-03-07T09:40:21.905Z,173.63
2018-03-07T09:42:50.126Z,171.67
2018-03-07T09:45:19.037Z,184.37
2018-03-07T09:47:47.157Z,175.33
2018-03-07T09:50:16.720Z,184.67
2018-03-07T09:52:45.098Z,173.10
2018-03-07T09:55:13.244Z,185.03
2018-03-07T09:57:41.370Z,184.83
2018-03-07T10:00:09.521Z,179.43
2018-03-07T10:02:37.661Z,173.00
2018-03-07T10:05:05.808Z,177.00
2018-03-07T10:07:33.945Z,181.43
2018-03-07T10:10:02.073Z,178.73
2018-03-07T10:12:30.729Z,179.63
2018-03-07T10:14:58.852Z,176.93
2018-03-07T10:17:27.766Z,180.27
2018-03-07T10:19:55.903Z,179.27
2018-03-07T10:22:24.054Z,183.63
2018-03-07T10:24:52.185Z,177.47
2018-03-07T10:27:20.338Z,178.57
2018-03-07T10:29:49.248Z,171.87
2018-03-07T10:32:17.401Z,176.93
2018-03-07T10:34:46.294Z,193.47
2018-03-07T10:37:15.202Z,189.63
2018-03-07T10:39:43.328Z,181.50
2018-03-07T10:42:11.649Z,180.43
2018-03-07T10:44:39.770Z,169.60
2018-03-07T10:47:07.932Z,170.70
2018-03-07T10:49:36.076Z,199.10
2018-03-07T10:52:06.053Z,182.43
2018-03-07T10:54:34.179Z,177.60
2018-03-07T10:57:02.337Z,187.50
2018-03-07T10:59:32.126Z,192.60
2018-03-07T11:02:00.740Z,185.37
2018-03-07T11:04:28.871Z,182.13
2018-03-07T11:06:57.016Z,171.77
2018-03-07T11:09:25.193Z,182.93
2018-03-07T11:11:53.334Z,174.97
2018-03-07T11:14:21.466Z,172.93
2018-03-07T11:16:49.622Z,176.13
2018-03-07T11:19:17.773Z,174.27
2018-03-07T11:21:45.918Z,177.23
2018-03-07T11:24:14.053Z,162.83
2018-03-07T11:26:42.201Z,175.67
2018-03-07T11:29:10.330Z,162.90
2018-03-07T11:31:39.750Z,160.50
2018-03-07T11:34:07.882Z,172.63
2018-03-07T11:36:36.032Z,158.17
2018-03-07T11:39:04.210Z,167.93
2018-03-07T11:41:32.374Z,156.73
2018-03-07T11:44:00.505Z,169.57
2018-03-07T11:46:28.669Z,165.03
2018-03-07T11:48:57.557Z,167.10
2018-03-07T11:51:26.478Z,158.57
2018-03-07T11:53:54.616Z,184.97
2018-03-07T11:56:23.528Z,171.20
2018-03-07T11:58:51.666Z,163.87
2018-03-07T12:01:20.625Z,167.90
2018-03-07T12:03:48.772Z,164.37
2018-03-07T12:06:16.921Z,174.20
2018-03-07T12:08:45.812Z,168.57
2018-03-07T12:11:14.730Z,166.80
2018-03-07T12:13:43.313Z,165.67
2018-03-07T12:16:11.469Z,169.33
2018-03-07T12:18:40.369Z,170.23
2018-03-07T12:21:08.508Z,175.63
2018-03-07T12:23:36.645Z,167.07
2018-03-07T12:26:04.782Z,189.20
2018-03-07T12:28:33.694Z,153.40
2018-03-07T12:31:01.831Z,174.33
2018-03-07T12:33:29.973Z,166.47
2018-03-07T12:35:59.033Z,165.10
2018-03-07T12:38:27.206Z,163.90
2018-03-07T12:40:55.330Z,153.47
2018-03-07T12:43:23.482Z,173.10
2018-03-07T12:45:51.605Z,167.60
2018-03-07T12:48:20.526Z,160.90
2018-03-07T12:50:49.841Z,179.10
2018-03-07T12:53:17.989Z,167.80
2018-03-07T12:55:46.149Z,168.10
2018-03-07T12:58:15.065Z,156.63
2018-03-07T13:00:43.193Z,169.43
2018-03-07T13:03:12.118Z,168.37
2018-03-07T13:05:40.256Z,164.50
2018-03-07T13:08:08.405Z,158.33
2018-03-07T13:10:36.537Z,162.50
2018-03-07T13:13:04.716Z,165.20
2018-03-07T13:15:32.847Z,172.87
2018-03-07T13:18:01.000Z,166.03
2018-03-07T13:20:29.135Z,159.90
2018-03-07T13:22:57.286Z,160.43
2018-03-07T13:25:26.623Z,166.90
2018-03-07T13:27:54.810Z,167.17
2018-03-07T13:30:22.942Z,183.63
2018-03-07T13:32:51.469Z,169.10
2018-03-07T13:35:21.831Z,166.57
2018-03-07T13:37:50.757Z,161.67
2018-03-07T13:40:18.888Z,168.83
2018-03-07T13:42:47.042Z,168.67
2018-03-07T13:45:15.167Z,164.50
2018-03-07T13:47:43.315Z,159.93
2018-03-07T13:50:11.453Z,160.17
2018-03-07T13:52:39.602Z,171.13
2018-03-07T13:55:08.581Z,182.80
2018-03-07T13:57:36.734Z,167.03
2018-03-07T14:00:04.854Z,169.00
2018-03-07T14:02:37.521Z,173.00
2018-03-07T14:05:06.897Z,156.00
2018-03-07T14:07:35.813Z,173.67
2018-03-07T14:10:03.942Z,167.57
2018-03-07T14:12:32.097Z,172.60
2018-03-07T14:15:00.225Z,163.13
2018-03-07T14:17:28.377Z,168.97
2018-03-07T14:19:57.285Z,178.03
2018-03-07T14:22:26.213Z,167.30
2018-03-07T14:24:54.337Z,182.03
2018-03-07T14:29:56.730Z,171.07
2018-03-07T14:32:25.644Z,184.70
2018-03-07T14:34:53.762Z,167.00
2018-03-07T14:37:21.914Z,159.90
2018-03-07T14:39:50.028Z,166.00
2018-03-07T14:42:18.181Z,150.87
2018-03-07T14:44:46.302Z,150.93
2018-03-07T14:47:15.209Z,156.10
2018-03-07T14:49:43.340Z,167.00
2018-03-07T14:52:11.857Z,161.37
2018-03-07T14:54:40.732Z,158.83
2018-03-07T14:57:09.622Z,160.90
2018-03-07T14:59:38.605Z,155.97
2018-03-07T15:02:06.729Z,154.13
2018-03-07T15:04:34.868Z,157.00
2018-03-07T15:07:03.773Z,151.83
2018-03-07T15:09:36.313Z,150.37
2018-03-07T15:12:04.441Z,152.30
2018-03-07T15:14:32.586Z,151.73
2018-03-07T15:17:01.478Z,157.27
2018-03-07T15:19:30.388Z,151.60
2018-03-07T15:21:58.533Z,155.77
2018-03-07T15:24:27.448Z,153.30
2018-03-07T15:26:55.598Z,155.17
2018-03-07T15:29:23.739Z,176.90
2018-03-07T15:31:51.853Z,157.33
2018-03-07T15:34:20.012Z,137.13
2018-03-07T15:36:48.123Z,140.13
2018-03-07T15:39:16.277Z,146.70
2018-03-07T15:41:45.168Z,134.73
2018-03-07T15:44:14.083Z,148.27
2018-03-07T15:46:42.195Z,140.50
2018-03-07T15:49:10.331Z,154.13
2018-03-07T15:51:38.453Z,143.93
2018-03-07T15:54:06.681Z,156.87
2018-03-07T15:56:34.788Z,208.93
2018-03-07T15:59:02.940Z,201.53
2018-03-07T16:01:32.633Z,190.93
2018-03-07T16:04:00.784Z,165.57
2018-03-07T16:06:29.697Z,193.50
2018-03-07T16:08:57.849Z,161.60
2018-03-07T16:11:26.740Z,150.83
2018-03-07T16:13:55.669Z,150.57
2018-03-07T16:16:23.791Z,143.33
2018-03-07T16:18:51.924Z,136.50
2018-03-07T16:21:20.080Z,147.20
2018-03-07T16:23:48.221Z,139.57
2018-03-07T16:26:17.137Z,138.30
2018-03-07T16:28:46.054Z,144.87
2018-03-07T16:31:14.618Z,150.30
2018-03-07T16:33:44.735Z,145.03
2018-03-07T16:36:15.021Z,136.50
2018-03-07T16:38:43.246Z,146.83
2018-03-07T16:41:11.402Z,160.93
2018-03-07T16:43:40.110Z,143.80
2018-03-07T16:46:08.284Z,151.73
2018-03-07T16:48:36.466Z,153.67
2018-03-07T16:51:04.633Z,139.33
2018-03-07T16:53:32.819Z,141.23
2018-03-07T16:56:01.674Z,133.07
2018-03-07T16:58:29.973Z,153.73
2018-03-07T17:00:58.150Z,143.90
2018-03-07T17:03:27.165Z,163.97
2018-03-07T17:05:55.792Z,134.27
2018-03-07T17:08:24.739Z,138.70
2018-03-07T17:10:53.746Z,142.20
2018-03-07T17:13:21.928Z,139.83
2018-03-07T17:15:50.106Z,153.33
2018-03-07T17:18:18.299Z,130.93
2018-03-07T17:20:47.277Z,144.43
2018-03-07T17:23:15.468Z,148.50
2018-03-07T17:25:43.743Z,151.23
2018-03-07T17:28:12.707Z,158.37
2018-03-07T17:30:41.466Z,159.07
2018-03-07T17:33:10.557Z,144.77
2018-03-07T17:35:38.739Z,151.30
2018-03-07T17:38:08.958Z,135.80
2018-03-07T17:40:37.120Z,136.30
2018-03-07T17:43:06.034Z,145.37
2018-03-07T17:45:35.530Z,148.27
2018-03-07T17:48:03.748Z,135.53
2018-03-07T17:50:31.939Z,143.97
2018-03-07T17:53:00.866Z,154.03
2018-03-07T17:55:29.028Z,141.07
2018-03-07T17:57:57.843Z,129.33
2018-03-07T18:00:26.104Z,136.67
2018-03-07T18:02:54.270Z,142.33
2018-03-07T18:05:22.404Z,144.07
2018-03-07T18:07:50.873Z,173.97
2018-03-07T18:10:19.054Z,178.80
2018-03-07T18:12:47.839Z,160.47
2018-03-07T18:15:16.269Z,173.37
2018-03-07T18:17:44.496Z,167.43
2018-03-07T18:20:13.418Z,156.97
2018-03-07T18:22:42.485Z,155.50
2018-03-07T18:25:11.432Z,172.53
2018-03-07T18:27:39.551Z,179.40
2018-03-07T18:30:08.805Z,152.30
2018-03-07T18:32:36.950Z,161.20
2018-03-07T18:35:05.114Z,165.70
2018-03-07T18:37:33.257Z,160.53
2018-03-07T18:40:01.426Z,160.47
2018-03-07T18:42:29.614Z,174.17
2018-03-07T18:44:58.576Z,166.37
2018-03-07T18:47:27.962Z,173.77
2018-03-07T18:49:56.108Z,176.67
2018-03-07T18:52:24.234Z,179.07
2018-03-07T18:54:52.378Z,206.67
2018-03-07T18:57:20.505Z,192.87
2018-03-07T18:59:49.419Z,200.20
2018-03-07T19:02:17.632Z,167.33
2018-03-07T19:04:47.503Z,176.40
2018-03-07T19:07:15.648Z,159.53
2018-03-07T19:09:46.732Z,166.70
2018-03-07T19:12:14.858Z,174.10
2018-03-07T19:14:42.999Z,166.70
2018-03-07T19:17:11.128Z,168.03
2018-03-07T19:19:40.042Z,155.53
2018-03-07T19:22:08.167Z,161.13
2018-03-07T19:24:36.309Z,150.17
2018-03-07T19:27:04.429Z,136.63
2018-03-07T19:29:32.585Z,126.53
2018-03-07T19:32:00.711Z,104.23
2018-03-07T19:34:28.844Z,125.43
2018-03-07T19:36:57.015Z,122.80
2018-03-07T19:39:25.169Z,91.57
2018-03-07T19:41:53.281Z,86.27
2018-03-07T19:44:22.203Z,111.20
2018-03-07T19:46:50.355Z,104.37
2018-03-07T19:49:19.252Z,96.37
2018-03-07T19:51:47.385Z,98.10
2018-03-07T19:54:15.784Z,99.63
2018-03-07T19:56:44.370Z,103.40
2018-03-07T19:59:13.317Z,98.07
2018-03-07T20:01:41.456Z,120.00
2018-03-07T20:04:09.697Z,119.13
2018-03-07T20:06:37.922Z,126.83
2018-03-07T20:09:06.053Z,131.77
2018-03-07T20:11:34.975Z,136.13
2018-03-07T20:14:03.134Z,131.80
2018-03-07T20:16:31.763Z,161.00
2018-03-07T20:18:59.927Z,157.00
2018-03-07T20:21:28.096Z,150.33
2018-03-07T20:23:56.331Z,155.70
2018-03-07T20:26:24.489Z,143.60
2018-03-07T20:28:52.945Z,146.03
2018-03-07T20:31:21.940Z,155.10
2018-03-07T20:33:50.070Z,148.27
2018-03-07T20:36:18.331Z,145.90
2018-03-07T20:38:47.641Z,136.70
2018-03-07T20:41:16.854Z,123.37
2018-03-07T20:43:45.020Z,134.73
2018-03-07T20:46:14.063Z,142.37
2018-03-07T20:48:42.185Z,141.80
2018-03-07T20:51:11.285Z,167.70
2018-03-07T20:53:39.526Z,197.33
2018-03-07T20:56:07.698Z,164.63
2018-03-07T20:58:35.908Z,239.83
2018-03-07T21:01:04.837Z,141.80
2018-03-07T21:03:32.956Z,152.60
2018-03-07T21:06:01.313Z,149.73
2018-03-07T21:08:29.689Z,127.77
2018-03-07T21:10:57.961Z,123.00
2018-03-07T21:13:26.081Z,130.27
2018-03-07T21:15:55.144Z,125.67
2018-03-07T21:18:23.354Z,123.73
2018-03-07T21:20:52.256Z,122.20
2018-03-07T21:23:21.152Z,110.50
2018-03-07T21:25:49.309Z,107.83
2018-03-07T21:28:17.626Z,115.97
2018-03-07T21:30:45.778Z,113.40
2018-03-07T21:33:13.916Z,121.97
2018-03-07T21:35:42.049Z,93.33
2018-03-07T21:38:10.778Z,98.93
2018-03-07T21:40:38.919Z,98.13
2018-03-07T21:43:07.804Z,108.87
2018-03-07T21:45:35.956Z,89.90
2018-03-07T21:48:04.073Z,99.03
2018-03-07T21:50:32.266Z,76.93
2018-03-07T21:53:00.380Z,73.17
2018-03-07T21:55:28.521Z,72.83
2018-03-07T21:57:56.675Z,77.07
2018-03-07T22:00:24.834Z,74.23
2018-03-07T22:02:53.891Z,62.80
2018-03-07T22:05:22.038Z,65.07
2018-03-07T22:07:50.979Z,68.20
2018-03-07T22:10:19.126Z,68.27
2018-03-07T22:12:47.245Z,56.30
2018-03-07T22:15:15.401Z,48.03
2018-03-07T22:17:43.530Z,57.53
2018-03-07T22:20:12.433Z,55.20
2018-03-07T22:22:40.563Z,52.93
2018-03-07T22:25:08.724Z,49.33
2018-03-07T22:27:36.836Z,30.03
2018-03-07T22:30:05.294Z,36.10
2018-03-07T22:32:34.318Z,33.37
2018-03-07T22:35:03.199Z,27.10
2018-03-07T22:37:32.096Z,29.50
2018-03-07T22:40:00.968Z,21.23
2018-03-07T22:42:29.109Z,21.50
2018-03-07T22:44:57.989Z,22.27
2018-03-07T22:47:26.121Z,21.30
2018-03-07T22:49:55.061Z,17.37
2018-03-07T22:52:23.253Z,21.27
2018-03-07T22:54:51.398Z,20.93
2018-03-07T22:57:19.537Z,20.00
2018-03-07T22:59:48.420Z,20.50
2018-03-07T23:02:16.594Z,18.40
2018-03-07T23:04:44.714Z,20.67
2018-03-07T23:07:13.562Z,18.17
2018-03-07T23:09:42.621Z,18.43
2018-03-07T23:12:10.773Z,23.27
2018-03-07T23:14:38.893Z,17.50
2018-03-07T23:17:07.037Z,21.53
2018-03-07T23:19:35.956Z,19.17
2018-03-07T23:22:04.140Z,18.70
2018-03-07T23:24:33.041Z,18.93
2018-03-07T23:27:01.686Z,20.80
2018-03-07T23:29:29.804Z,18.77
2018-03-07T23:31:58.726Z,18.27
2018-03-07T23:34:26.851Z,19.67
2018-03-07T23:36:54.996Z,17.77
2018-03-07T23:39:23.115Z,20.47
2018-03-07T23:41:52.084Z,16.20
2018-03-07T23:44:20.208Z,17.47
2018-03-07T23:46:48.355Z,18.17
2018-03-07T23:49:17.241Z,17.47
2018-03-07T23:51:45.434Z,22.03
2018-03-07T23:54:13.973Z,22.90
2018-03-07T23:56:42.116Z,16.50
2018-03-07T23:59:10.241Z,15.43
